sensor_id;sensor_type;location;lat;lon;timestamp;pressure;altitude;pressure_sealevel;temperature;humidity
13422;BME280;6782;55.904;13.396;2023-03-15T00:02:24;99408.91;;;0.43;100.00
13422;BME280;6782;55.904;13.396;2023-03-15T00:04:51;99414.97;;;0.37;100.00
13422;BME280;6782;55.904;13.396;2023-03-15T00:07:19;99418.41;;;0.36;100.00
13422;BME280;6782;55.904;13.396;2023-03-15T00:09:50;99440.03;;;0.40;100.00
13422;BME280;6782;55.904;13.396;2023-03-15T00:12:19;99438.28;;;0.43;100.00
13422;BME280;6782;55.904;13.396;2023-03-15T00:14:47;99461.63;;;0.43;100.00
13422;BME280;6782;55.904;13.396;2023-03-15T00:17:14;99468.53;;;0.44;100.00
13422;BME280;6782;55.904;13.396;2023-03-15T00:19:41;99475.44;;;0.45;100.00
13422;BME280;6782;55.904;13.396;2023-03-15T00:22:08;99490.13;;;0.48;100.00
13422;BME280;6782;55.904;13.396;2023-03-15T00:24:35;99505.69;;;0.48;100.00
13422;BME280;6782;55.904;13.396;2023-03-15T00:27:02;99522.97;;;0.44;100.00
13422;BME280;6782;55.904;13.396;2023-03-15T00:29:32;99524.69;;;0.47;100.00
13422;BME280;6782;55.904;13.396;2023-03-15T00:31:59;99539.38;;;0.49;100.00
13422;BME280;6782;55.904;13.396;2023-03-15T00:34:26;99549.75;;;0.49;100.00
13422;BME280;6782;55.904;13.396;2023-03-15T00:36:53;99554.97;;;0.43;100.00
13422;BME280;6782;55.904;13.396;2023-03-15T00:39:19;99561.91;;;0.38;100.00
13422;BME280;6782;55.904;13.396;2023-03-15T00:41:46;99585.22;;;0.46;100.00
13422;BME280;6782;55.904;13.396;2023-03-15T00:44:14;99594.69;;;0.51;100.00
13422;BME280;6782;55.904;13.396;2023-03-15T00:46:42;99608.56;;;0.53;100.00
13422;BME280;6782;55.904;13.396;2023-03-15T00:49:09;99615.44;;;0.51;100.00
13422;BME280;6782;55.904;13.396;2023-03-15T00:51:36;99619.81;;;0.51;100.00
13422;BME280;6782;55.904;13.396;2023-03-15T00:54:03;99620.66;;;0.45;100.00
13422;BME280;6782;55.904;13.396;2023-03-15T00:56:30;99637.97;;;0.40;100.00
13422;BME280;6782;55.904;13.396;2023-03-15T00:58:57;99637.09;;;0.31;100.00
13422;BME280;6782;55.904;13.396;2023-03-15T01:01:25;99650.06;;;0.29;100.00
13422;BME280;6782;55.904;13.396;2023-03-15T01:03:54;99665.59;;;0.29;100.00
13422;BME280;6782;55.904;13.396;2023-03-15T01:06:23;99686.38;;;0.35;100.00
13422;BME280;6782;55.904;13.396;2023-03-15T01:08:50;99691.53;;;0.41;100.00
13422;BME280;6782;55.904;13.396;2023-03-15T01:11:21;99707.09;;;0.50;100.00
13422;BME280;6782;55.904;13.396;2023-03-15T01:13:48;99706.25;;;0.60;100.00
13422;BME280;6782;55.904;13.396;2023-03-15T01:16:16;99721.81;;;0.68;100.00
13422;BME280;6782;55.904;13.396;2023-03-15T01:18:43;99727.88;;;0.69;100.00
13422;BME280;6782;55.904;13.396;2023-03-15T01:21:13;99739.97;;;0.67;100.00
13422;BME280;6782;55.904;13.396;2023-03-15T01:23:43;99739.97;;;0.60;100.00
13422;BME280;6782;55.904;13.396;2023-03-15T01:26:12;99757.25;;;0.63;100.00
13422;BME280;6782;55.904;13.396;2023-03-15T01:28:39;99764.19;;;0.69;100.00
13422;BME280;6782;55.904;13.396;2023-03-15T01:31:08;99776.28;;;0.79;100.00
13422;BME280;6782;55.904;13.396;2023-03-15T01:33:40;99774.56;;;0.81;100.00
13422;BME280;6782;55.904;13.396;2023-03-15T01:36:07;99788.38;;;0.80;100.00
13422;BME280;6782;55.904;13.396;2023-03-15T01:38:35;99791.00;;;0.81;100.00
13422;BME280;6782;55.904;13.396;2023-03-15T01:41:03;99798.78;;;0.83;100.00
13422;BME280;6782;55.904;13.396;2023-03-15T01:43:31;99805.72;;;0.87;100.00
13422;BME280;6782;55.904;13.396;2023-03-15T01:46:05;99812.63;;;0.85;100.00
13422;BME280;6782;55.904;13.396;2023-03-15T01:48:35;99812.63;;;0.82;100.00
13422;BME280;6782;55.904;13.396;2023-03-15T01:51:08;99827.31;;;0.83;100.00
13422;BME280;6782;55.904;13.396;2023-03-15T01:53:40;99831.63;;;0.75;100.00
13422;BME280;6782;55.904;13.396;2023-03-15T01:56:09;99835.09;;;0.71;100.00
13422;BME280;6782;55.904;13.396;2023-03-15T01:58:37;99844.59;;;0.66;100.00
13422;BME280;6782;55.904;13.396;2023-03-15T02:01:07;99844.59;;;0.64;100.00
13422;BME280;6782;55.904;13.396;2023-03-15T02:03:38;99847.16;;;0.59;100.00
13422;BME280;6782;55.904;13.396;2023-03-15T02:06:13;99853.22;;;0.57;100.00
13422;BME280;6782;55.904;13.396;2023-03-15T02:08:49;99858.41;;;0.52;100.00
13422;BME280;6782;55.904;13.396;2023-03-15T02:11:19;99864.44;;;0.54;100.00
13422;BME280;6782;55.904;13.396;2023-03-15T02:13:48;99869.63;;;0.54;100.00
13422;BME280;6782;55.904;13.396;2023-03-15T02:16:15;99883.47;;;0.50;100.00
13422;BME280;6782;55.904;13.396;2023-03-15T02:18:43;99877.41;;;0.50;100.00
13422;BME280;6782;55.904;13.396;2023-03-15T02:21:20;99886.91;;;0.46;100.00
13422;BME280;6782;55.904;13.396;2023-03-15T02:23:57;99886.91;;;0.46;100.00
13422;BME280;6782;55.904;13.396;2023-03-15T02:26:34;99892.09;;;0.43;100.00
13422;BME280;6782;55.904;13.396;2023-03-15T02:29:06;99897.25;;;0.34;100.00
13422;BME280;6782;55.904;13.396;2023-03-15T02:31:33;99903.25;;;0.27;100.00
13422;BME280;6782;55.904;13.396;2023-03-15T02:34:03;99900.69;;;0.27;100.00
13422;BME280;6782;55.904;13.396;2023-03-15T02:36:32;99911.91;;;0.26;100.00
13422;BME280;6782;55.904;13.396;2023-03-15T02:39:00;99912.75;;;0.22;100.00
13422;BME280;6782;55.904;13.396;2023-03-15T02:41:30;99924.00;;;0.23;100.00
13422;BME280;6782;55.904;13.396;2023-03-15T02:44:02;99926.56;;;0.21;100.00
13422;BME280;6782;55.904;13.396;2023-03-15T02:46:33;99924.84;;;0.26;100.00
13422;BME280;6782;55.904;13.396;2023-03-15T02:49:01;99936.13;;;0.28;100.00
13422;BME280;6782;55.904;13.396;2023-03-15T02:51:29;99944.78;;;0.30;100.00
13422;BME280;6782;55.904;13.396;2023-03-15T02:53:56;99949.06;;;0.25;100.00
13422;BME280;6782;55.904;13.396;2023-03-15T02:56:22;99955.13;;;0.29;100.00
13422;BME280;6782;55.904;13.396;2023-03-15T02:58:49;99955.13;;;0.32;100.00
13422;BME280;6782;55.904;13.396;2023-03-15T03:01:17;99963.78;;;0.34;100.00
13422;BME280;6782;55.904;13.396;2023-03-15T03:03:46;99961.19;;;0.32;100.00
13422;BME280;6782;55.904;13.396;2023-03-15T03:06:14;99968.09;;;0.30;100.00
13422;BME280;6782;55.904;13.396;2023-03-15T03:08:42;99962.94;;;0.30;100.00
13422;BME280;6782;55.904;13.396;2023-03-15T03:11:12;99968.09;;;0.27;100.00
13422;BME280;6782;55.904;13.396;2023-03-15T03:13:39;99964.69;;;0.36;100.00
13422;BME280;6782;55.904;13.396;2023-03-15T03:16:07;99972.44;;;0.33;100.00
13422;BME280;6782;55.904;13.396;2023-03-15T03:18:34;99968.97;;;0.29;100.00
13422;BME280;6782;55.904;13.396;2023-03-15T03:21:05;99962.94;;;0.30;100.00
13422;BME280;6782;55.904;13.396;2023-03-15T03:23:34;99974.19;;;0.35;100.00
13422;BME280;6782;55.904;13.396;2023-03-15T03:26:01;99980.19;;;0.31;100.00
13422;BME280;6782;55.904;13.396;2023-03-15T03:28:30;99981.13;;;0.42;100.00
13422;BME280;6782;55.904;13.396;2023-03-15T03:30:58;99986.31;;;0.42;100.00
13422;BME280;6782;55.904;13.396;2023-03-15T03:33:25;99976.78;;;0.35;100.00
13422;BME280;6782;55.904;13.396;2023-03-15T03:35:52;99978.50;;;0.36;100.00
13422;BME280;6782;55.904;13.396;2023-03-15T03:38:21;99981.09;;;0.33;100.00
13422;BME280;6782;55.904;13.396;2023-03-15T03:40:48;99976.72;;;0.29;100.00
13422;BME280;6782;55.904;13.396;2023-03-15T03:43:15;99987.16;;;0.35;100.00
13422;BME280;6782;55.904;13.396;2023-03-15T03:45:42;99983.69;;;0.33;100.00
13422;BME280;6782;55.904;13.396;2023-03-15T03:48:09;99977.63;;;0.28;100.00
13422;BME280;6782;55.904;13.396;2023-03-15T03:50:36;99987.09;;;0.29;100.00
13422;BME280;6782;55.904;13.396;2023-03-15T03:53:03;99985.44;;;0.40;100.00
13422;BME280;6782;55.904;13.396;2023-03-15T03:55:31;99984.53;;;0.34;100.00
13422;BME280;6782;55.904;13.396;2023-03-15T03:57:58;99970.66;;;0.26;100.00
13422;BME280;6782;55.904;13.396;2023-03-15T04:00:25;99976.72;;;0.26;100.00
13422;BME280;6782;55.904;13.396;2023-03-15T04:02:52;99976.69;;;0.20;100.00
13422;BME280;6782;55.904;13.396;2023-03-15T04:05:20;99969.75;;;0.21;100.00
13422;BME280;6782;55.904;13.396;2023-03-15T04:07:47;99975.84;;;0.24;100.00
13422;BME280;6782;55.904;13.396;2023-03-15T04:12:43;99979.28;;;0.17;100.00
13422;BME280;6782;55.904;13.396;2023-03-15T04:15:10;99981.84;;;0.17;100.00
13422;BME280;6782;55.904;13.396;2023-03-15T04:17:38;99981.88;;;0.20;100.00
13422;BME280;6782;55.904;13.396;2023-03-15T04:20:06;99981.84;;;0.19;100.00
13422;BME280;6782;55.904;13.396;2023-03-15T04:22:36;99980.13;;;0.21;100.00
13422;BME280;6782;55.904;13.396;2023-03-15T04:25:04;99978.44;;;0.24;100.00
13422;BME280;6782;55.904;13.396;2023-03-15T04:27:31;99981.94;;;0.28;100.00
13422;BME280;6782;55.904;13.396;2023-03-15T04:30:00;99985.38;;;0.25;100.00
13422;BME280;6782;55.904;13.396;2023-03-15T04:32:29;99988.84;;;0.27;100.00
13422;BME280;6782;55.904;13.396;2023-03-15T04:34:56;99978.44;;;0.24;100.00
13422;BME280;6782;55.904;13.396;2023-03-15T04:37:23;99978.41;;;0.15;100.00
13422;BME280;6782;55.904;13.396;2023-03-15T04:39:50;99980.97;;;0.14;100.00
13422;BME280;6782;55.904;13.396;2023-03-15T04:42:18;99977.59;;;0.27;100.00
13422;BME280;6782;55.904;13.396;2023-03-15T04:44:45;99987.06;;;0.23;100.00
13422;BME280;6782;55.904;13.396;2023-03-15T04:47:14;99979.28;;;0.20;100.00
13422;BME280;6782;55.904;13.396;2023-03-15T04:49:40;99980.97;;;0.18;100.00
13422;BME280;6782;55.904;13.396;2023-03-15T04:52:07;99981.81;;;0.16;100.00
13422;BME280;6782;55.904;13.396;2023-03-15T04:54:34;99987.03;;;0.14;100.00
13422;BME280;6782;55.904;13.396;2023-03-15T04:57:01;99978.41;;;0.15;100.00
13422;BME280;6782;55.904;13.396;2023-03-15T04:59:28;99987.88;;;0.16;100.00
13422;BME280;6782;55.904;13.396;2023-03-15T05:01:55;99985.34;;;0.22;100.00
13422;BME280;6782;55.904;13.396;2023-03-15T05:04:24;99981.03;;;0.23;100.00
13422;BME280;6782;55.904;13.396;2023-03-15T05:06:51;99985.34;;;0.22;100.00
13422;BME280;6782;55.904;13.396;2023-03-15T05:09:18;99989.69;;;0.28;100.00
13422;BME280;6782;55.904;13.396;2023-03-15T05:11:46;99989.69;;;0.25;100.00
13422;BME280;6782;55.904;13.396;2023-03-15T05:14:13;99992.31;;;0.32;100.00
13422;BME280;6782;55.904;13.396;2023-03-15T05:16:43;100003.56;;;0.34;100.00
13422;BME280;6782;55.904;13.396;2023-03-15T05:19:12;100001.81;;;0.30;100.00
13422;BME280;6782;55.904;13.396;2023-03-15T05:21:41;100007.84;;;0.29;100.00
13422;BME280;6782;55.904;13.396;2023-03-15T05:24:07;100007.88;;;0.32;100.00
13422;BME280;6782;55.904;13.396;2023-03-15T05:26:34;100007.88;;;0.32;100.00
13422;BME280;6782;55.904;13.396;2023-03-15T05:29:01;100007.00;;;0.32;100.00
13422;BME280;6782;55.904;13.396;2023-03-15T05:31:29;100022.63;;;0.41;100.00
13422;BME280;6782;55.904;13.396;2023-03-15T05:34:01;100025.25;;;0.51;100.00
13422;BME280;6782;55.904;13.396;2023-03-15T05:36:28;100027.84;;;0.48;100.00
13422;BME280;6782;55.904;13.396;2023-03-15T05:38:57;100025.22;;;0.41;100.00
13422;BME280;6782;55.904;13.396;2023-03-15T05:41:28;100013.94;;;0.36;100.00
13422;BME280;6782;55.904;13.396;2023-03-15T05:43:54;100025.19;;;0.33;100.00
13422;BME280;6782;55.904;13.396;2023-03-15T05:46:22;100024.31;;;0.33;100.00
13422;BME280;6782;55.904;13.396;2023-03-15T05:48:50;100025.16;;;0.30;100.00
13422;BME280;6782;55.904;13.396;2023-03-15T05:51:19;100025.13;;;0.29;100.00
13422;BME280;6782;55.904;13.396;2023-03-15T05:53:46;100032.97;;;0.38;100.00
13422;BME280;6782;55.904;13.396;2023-03-15T05:56:15;100033.81;;;0.35;100.00
13422;BME280;6782;55.904;13.396;2023-03-15T05:58:42;100041.56;;;0.34;100.00
13422;BME280;6782;55.904;13.396;2023-03-15T06:01:09;100038.16;;;0.39;100.00
13422;BME280;6782;55.904;13.396;2023-03-15T06:03:37;100050.31;;;0.45;100.00
13422;BME280;6782;55.904;13.396;2023-03-15T06:06:07;100053.75;;;0.47;100.00
13422;BME280;6782;55.904;13.396;2023-03-15T06:08:34;100056.41;;;0.54;100.00
13422;BME280;6782;55.904;13.396;2023-03-15T06:11:02;100066.00;;;0.66;100.00
13422;BME280;6782;55.904;13.396;2023-03-15T06:13:30;100064.31;;;0.80;100.00
13422;BME280;6782;55.904;13.396;2023-03-15T06:15:58;100063.41;;;0.72;100.00
13422;BME280;6782;55.904;13.396;2023-03-15T06:18:25;100066.00;;;0.71;100.00
13422;BME280;6782;55.904;13.396;2023-03-15T06:20:52;100065.16;;;0.75;100.00
13422;BME280;6782;55.904;13.396;2023-03-15T06:23:19;100079.03;;;0.81;100.00
13422;BME280;6782;55.904;13.396;2023-03-15T06:25:46;100078.22;;;0.87;100.00
13422;BME280;6782;55.904;13.396;2023-03-15T06:28:13;100084.28;;;0.89;100.00
13422;BME280;6782;55.904;13.396;2023-03-15T06:30:41;100090.38;;;1.03;100.00
13422;BME280;6782;55.904;13.396;2023-03-15T06:33:09;100076.53;;;0.99;100.00
13422;BME280;6782;55.904;13.396;2023-03-15T06:35:36;100092.16;;;1.10;100.00
13422;BME280;6782;55.904;13.396;2023-03-15T06:38:03;100093.00;;;1.09;100.00
13422;BME280;6782;55.904;13.396;2023-03-15T06:40:31;100087.84;;;1.12;100.00
13422;BME280;6782;55.904;13.396;2023-03-15T06:42:58;100088.72;;;1.15;100.00
13422;BME280;6782;55.904;13.396;2023-03-15T06:45:30;100089.59;;;1.22;100.00
13422;BME280;6782;55.904;13.396;2023-03-15T06:47:59;100086.16;;;1.23;100.00
13422;BME280;6782;55.904;13.396;2023-03-15T06:50:26;100093.13;;;1.39;100.00
13422;BME280;6782;55.904;13.396;2023-03-15T06:52:53;100086.19;;;1.35;100.00
13422;BME280;6782;55.904;13.396;2023-03-15T06:55:21;100083.63;;;1.43;100.00
13422;BME280;6782;55.904;13.396;2023-03-15T06:57:48;100078.41;;;1.40;100.00
13422;BME280;6782;55.904;13.396;2023-03-15T07:00:17;100081.03;;;1.50;100.00
13422;BME280;6782;55.904;13.396;2023-03-15T07:02:44;100076.69;;;1.52;100.00
13422;BME280;6782;55.904;13.396;2023-03-15T07:05:13;100083.66;;;1.61;100.00
13422;BME280;6782;55.904;13.396;2023-03-15T07:07:40;100074.13;;;1.61;100.00
13422;BME280;6782;55.904;13.396;2023-03-15T07:10:09;100068.94;;;1.64;100.00
13422;BME280;6782;55.904;13.396;2023-03-15T07:12:36;100077.59;;;1.63;100.00
13422;BME280;6782;55.904;13.396;2023-03-15T07:15:04;100068.94;;;1.67;100.00
13422;BME280;6782;55.904;13.396;2023-03-15T07:17:31;100072.41;;;1.72;100.00
13422;BME280;6782;55.904;13.396;2023-03-15T07:20:18;100066.34;;;1.75;100.00
13422;BME280;6782;55.904;13.396;2023-03-15T07:23:05;100067.22;;;1.80;100.00
13422;BME280;6782;55.904;13.396;2023-03-15T07:25:53;100071.56;;;1.93;100.00
13422;BME280;6782;55.904;13.396;2023-03-15T07:28:41;100064.63;;;1.92;100.00
13422;BME280;6782;55.904;13.396;2023-03-15T07:31:29;100073.31;;;2.12;100.00
13422;BME280;6782;55.904;13.396;2023-03-15T07:34:17;100051.66;;;2.03;100.00
13422;BME280;6782;55.904;13.396;2023-03-15T07:37:06;100056.84;;;2.18;100.00
13422;BME280;6782;55.904;13.396;2023-03-15T07:39:53;100057.69;;;2.20;100.00
13422;BME280;6782;55.904;13.396;2023-03-15T07:42:41;100039.47;;;2.11;100.00
13422;BME280;6782;55.904;13.396;2023-03-15T07:45:29;100042.09;;;2.17;100.00
13422;BME280;6782;55.904;13.396;2023-03-15T07:48:16;100050.72;;;2.37;100.00
13422;BME280;6782;55.904;13.396;2023-03-15T07:51:03;100052.47;;;2.41;100.00
13422;BME280;6782;55.904;13.396;2023-03-15T07:53:52;100048.13;;;2.37;100.00
13422;BME280;6782;55.904;13.396;2023-03-15T07:56:39;100043.78;;;2.37;100.00
13422;BME280;6782;55.904;13.396;2023-03-15T07:59:27;100050.72;;;2.47;100.00
13422;BME280;6782;55.904;13.396;2023-03-15T08:02:14;100061.97;;;2.66;100.00
13422;BME280;6782;55.904;13.396;2023-03-15T08:05:02;100040.28;;;2.55;100.00
13422;BME280;6782;55.904;13.396;2023-03-15T08:07:50;100040.28;;;2.60;100.00
13422;BME280;6782;55.904;13.396;2023-03-15T08:10:39;100047.16;;;2.80;100.00
13422;BME280;6782;55.904;13.396;2023-03-15T08:13:26;100049.75;;;2.89;100.00
13422;BME280;6782;55.904;13.396;2023-03-15T08:16:13;100037.56;;;2.91;100.00
13422;BME280;6782;55.904;13.396;2023-03-15T08:19:00;100021.94;;;2.88;100.00
13422;BME280;6782;55.904;13.396;2023-03-15T08:21:47;100015.00;;;2.90;100.00
13422;BME280;6782;55.904;13.396;2023-03-15T08:24:38;99997.66;;;2.92;100.00
13422;BME280;6782;55.904;13.396;2023-03-15T08:27:27;99985.56;;;2.82;100.00
13422;BME280;6782;55.904;13.396;2023-03-15T08:30:15;99988.97;;;2.90;100.00
13422;BME280;6782;55.904;13.396;2023-03-15T08:33:03;99987.16;;;3.01;100.00
13422;BME280;6782;55.904;13.396;2023-03-15T08:35:53;99992.28;;;3.23;100.00
13422;BME280;6782;55.904;13.396;2023-03-15T08:38:41;99962.78;;;3.14;100.00
13422;BME280;6782;55.904;13.396;2023-03-15T08:41:28;99966.22;;;3.20;100.00
13422;BME280;6782;55.904;13.396;2023-03-15T08:44:17;99967.09;;;3.23;100.00
13422;BME280;6782;55.904;13.396;2023-03-15T08:47:04;99951.44;;;3.22;100.00
13422;BME280;6782;55.904;13.396;2023-03-15T08:49:51;99956.50;;;3.49;100.00
13422;BME280;6782;55.904;13.396;2023-03-15T08:52:39;99969.31;;;3.73;100.00
13422;BME280;6782;55.904;13.396;2023-03-15T08:55:27;99977.81;;;3.93;100.00
13422;BME280;6782;55.904;13.396;2023-03-15T08:58:14;99956.94;;;3.96;100.00
13422;BME280;6782;55.904;13.396;2023-03-15T09:01:03;99944.75;;;3.98;100.00
13422;BME280;6782;55.904;13.396;2023-03-15T09:03:50;99944.66;;;4.07;100.00
13422;BME280;6782;55.904;13.396;2023-03-15T09:06:37;99925.47;;;4.11;100.00
13422;BME280;6782;55.904;13.396;2023-03-15T09:09:26;99913.38;;;4.07;100.00
13422;BME280;6782;55.904;13.396;2023-03-15T09:12:13;99909.78;;;4.14;100.00
13422;BME280;6782;55.904;13.396;2023-03-15T09:15:01;99901.91;;;4.20;100.00
13422;BME280;6782;55.904;13.396;2023-03-15T09:17:51;99932.88;;;4.51;100.00
13422;BME280;6782;55.904;13.396;2023-03-15T09:20:38;99925.66;;;4.71;100.00
13422;BME280;6782;55.904;13.396;2023-03-15T09:23:26;99905.56;;;4.76;100.00
13422;BME280;6782;55.904;13.396;2023-03-15T09:26:13;99851.91;;;4.54;100.00
13422;BME280;6782;55.904;13.396;2023-03-15T09:29:00;99838.13;;;4.42;100.00
13422;BME280;6782;55.904;13.396;2023-03-15T09:31:48;99847.31;;;4.72;100.00
13422;BME280;6782;55.904;13.396;2023-03-15T09:34:37;99848.81;;;4.87;100.00
13422;BME280;6782;55.904;13.396;2023-03-15T09:37:25;99832.75;;;5.13;100.00
13422;BME280;6782;55.904;13.396;2023-03-15T09:40:17;99823.03;;;5.19;100.00
13422;BME280;6782;55.904;13.396;2023-03-15T09:43:21;99765.25;;;4.85;100.00
13422;BME280;6782;55.904;13.396;2023-03-15T09:46:24;99771.28;;;4.89;100.00
13422;BME280;6782;55.904;13.396;2023-03-15T09:49:17;99770.94;;;5.10;100.00
13422;BME280;6782;55.904;13.396;2023-03-15T09:52:23;99754.16;;;5.23;100.00
13422;BME280;6782;55.904;13.396;2023-03-15T09:55:16;99712.31;;;5.26;100.00
13422;BME280;6782;55.904;13.396;2023-03-15T09:58:09;99711.44;;;5.24;100.00
13422;BME280;6782;55.904;13.396;2023-03-15T10:01:00;99621.81;;;4.75;100.00
13422;BME280;6782;55.904;13.396;2023-03-15T10:03:49;99632.25;;;4.75;100.00
13422;BME280;6782;55.904;13.396;2023-03-15T10:06:41;99624.28;;;4.82;100.00
13422;BME280;6782;55.904;13.396;2023-03-15T10:09:32;99599.03;;;4.81;100.00
13422;BME280;6782;55.904;13.396;2023-03-15T10:12:22;99591.16;;;4.83;100.00
13422;BME280;6782;55.904;13.396;2023-03-15T10:15:21;99557.53;;;4.66;100.00
13422;BME280;6782;55.904;13.396;2023-03-15T10:18:19;99591.97;;;4.86;100.00
13422;BME280;6782;55.904;13.396;2023-03-15T10:21:16;99638.25;;;5.24;100.00
13422;BME280;6782;55.904;13.396;2023-03-15T10:24:15;99565.25;;;5.17;100.00
13422;BME280;6782;55.904;13.396;2023-03-15T10:27:14;99540.78;;;5.19;100.00
13422;BME280;6782;55.904;13.396;2023-03-15T10:30:14;99485.56;;;4.96;100.00
13422;BME280;6782;55.904;13.396;2023-03-15T10:33:03;99460.50;;;4.86;100.00
13422;BME280;6782;55.904;13.396;2023-03-15T10:35:56;99479.59;;;4.89;100.00
13422;BME280;6782;55.904;13.396;2023-03-15T10:38:44;99559.47;;;5.42;100.00
13422;BME280;6782;55.904;13.396;2023-03-15T10:41:36;99547.09;;;5.50;100.00
13422;BME280;6782;55.904;13.396;2023-03-15T10:44:26;99543.03;;;5.76;100.00
13422;BME280;6782;55.904;13.396;2023-03-15T10:47:15;99492.25;;;5.86;100.00
13422;BME280;6782;55.904;13.396;2023-03-15T10:50:06;99472.72;;;5.99;100.00
13422;BME280;6782;55.904;13.396;2023-03-15T10:52:55;99394.56;;;6.19;100.00
13422;BME280;6782;55.904;13.396;2023-03-15T10:55:44;99297.84;;;6.14;100.00
13422;BME280;6782;55.904;13.396;2023-03-15T10:58:39;99264.22;;;6.30;100.00
13422;BME280;6782;55.904;13.396;2023-03-15T11:01:30;99167.00;;;6.14;100.00
13422;BME280;6782;55.904;13.396;2023-03-15T11:04:20;99134.63;;;6.17;100.00
13422;BME280;6782;55.904;13.396;2023-03-15T11:07:08;98941.00;;;5.91;100.00
13422;BME280;6782;55.904;13.396;2023-03-15T11:09:59;98843.81;;;5.52;100.00
13422;BME280;6782;55.904;13.396;2023-03-15T11:12:47;98833.94;;;5.34;100.00
13422;BME280;6782;55.904;13.396;2023-03-15T11:15:34;98868.63;;;5.11;100.00
13422;BME280;6782;55.904;13.396;2023-03-15T11:18:28;99026.75;;;4.93;100.00
13422;BME280;6782;55.904;13.396;2023-03-15T11:21:18;99173.03;;;4.93;100.00
13422;BME280;6782;55.904;13.396;2023-03-15T11:24:08;99280.47;;;5.15;100.00
13422;BME280;6782;55.904;13.396;2023-03-15T11:26:58;99337.91;;;5.17;100.00
13422;BME280;6782;55.904;13.396;2023-03-15T11:29:48;99307.97;;;4.94;100.00
13422;BME280;6782;55.904;13.396;2023-03-15T11:32:37;99353.59;;;4.80;100.00
13422;BME280;6782;55.904;13.396;2023-03-15T11:35:31;99414.59;;;4.76;100.00
13422;BME280;6782;55.904;13.396;2023-03-15T11:38:25;99457.34;;;4.72;100.00
13422;BME280;6782;55.904;13.396;2023-03-15T11:41:26;99527.69;;;4.79;100.00
13422;BME280;6782;55.904;13.396;2023-03-15T11:44:24;99643.63;;;5.18;100.00
13422;BME280;6782;55.904;13.396;2023-03-15T11:47:22;99706.66;;;5.92;100.00
13422;BME280;6782;55.904;13.396;2023-03-15T11:50:12;99658.59;;;6.34;100.00
13422;BME280;6782;55.904;13.396;2023-03-15T11:53:03;99555.47;;;6.72;100.00
13422;BME280;6782;55.904;13.396;2023-03-15T11:55:52;99510.84;;;7.06;100.00
13422;BME280;6782;55.904;13.396;2023-03-15T11:58:40;99261.75;;;6.82;100.00
13422;BME280;6782;55.904;13.396;2023-03-15T12:01:28;99224.22;;;7.07;100.00
13422;BME280;6782;55.904;13.396;2023-03-15T12:07:56;98886.25;;;7.04;100.00
13422;BME280;6782;55.904;13.396;2023-03-15T12:10:46;98783.25;;;7.02;100.00
13422;BME280;6782;55.904;13.396;2023-03-15T12:13:35;98618.94;;;6.63;100.00
13422;BME280;6782;55.904;13.396;2023-03-15T12:16:25;98674.38;;;6.74;100.00
13422;BME280;6782;55.904;13.396;2023-03-15T12:19:15;98607.72;;;6.81;100.00
13422;BME280;6782;55.904;13.396;2023-03-15T12:22:03;98568.94;;;6.89;100.00
13422;BME280;6782;55.904;13.396;2023-03-15T12:24:51;98463.88;;;6.96;100.00
13422;BME280;6782;55.904;13.396;2023-03-15T12:27:45;98465.44;;;7.00;100.00
13422;BME280;6782;55.904;13.396;2023-03-15T12:30:38;98509.59;;;7.09;100.00
13422;BME280;6782;55.904;13.396;2023-03-15T12:33:28;98392.84;;;6.64;100.00
13422;BME280;6782;55.904;13.396;2023-03-15T12:36:28;98436.09;;;6.34;100.00
13422;BME280;6782;55.904;13.396;2023-03-15T12:39:28;98366.72;;;6.24;100.00
13422;BME280;6782;55.904;13.396;2023-03-15T12:43:00;98451.47;;;6.60;100.00
13422;BME280;6782;55.904;13.396;2023-03-15T12:45:48;98470.75;;;7.17;100.00
13422;BME280;6782;55.904;13.396;2023-03-15T12:48:35;98389.09;;;7.26;100.00
13422;BME280;6782;55.904;13.396;2023-03-15T12:51:54;98293.91;;;7.07;100.00
13422;BME280;6782;55.904;13.396;2023-03-15T12:54:45;98059.91;;;6.55;100.00
13422;BME280;6782;55.904;13.396;2023-03-15T12:57:36;97988.59;;;6.50;100.00
13422;BME280;6782;55.904;13.396;2023-03-15T13:00:28;98065.22;;;6.87;100.00
13422;BME280;6782;55.904;13.396;2023-03-15T13:03:18;97802.16;;;6.29;100.00
13422;BME280;6782;55.904;13.396;2023-03-15T13:06:12;97817.25;;;6.07;100.00
13422;BME280;6782;55.904;13.396;2023-03-15T13:09:13;97931.44;;;6.08;100.00
13422;BME280;6782;55.904;13.396;2023-03-15T13:12:07;97909.75;;;6.06;100.00
13422;BME280;6782;55.904;13.396;2023-03-15T13:15:00;98127.72;;;6.42;100.00
13422;BME280;6782;55.904;13.396;2023-03-15T13:17:50;98188.38;;;6.69;100.00
13422;BME280;6782;55.904;13.396;2023-03-15T13:20:46;97879.34;;;6.20;100.00
13422;BME280;6782;55.904;13.396;2023-03-15T13:23:47;97783.13;;;6.25;100.00
13422;BME280;6782;55.904;13.396;2023-03-15T13:26:44;98157.50;;;7.10;100.00
13422;BME280;6782;55.904;13.396;2023-03-15T13:29:37;98017.88;;;7.08;100.00
13422;BME280;6782;55.904;13.396;2023-03-15T13:32:24;97539.47;;;6.61;100.00
13422;BME280;6782;55.904;13.396;2023-03-15T13:35:12;97375.38;;;6.34;100.00
13422;BME280;6782;55.904;13.396;2023-03-15T13:38:06;97556.00;;;6.32;100.00
13422;BME280;6782;55.904;13.396;2023-03-15T13:40:56;97816.09;;;6.61;100.00
13422;BME280;6782;55.904;13.396;2023-03-15T13:43:46;97970.78;;;6.73;100.00
13422;BME280;6782;55.904;13.396;2023-03-15T13:46:35;98117.13;;;6.79;100.00
13422;BME280;6782;55.904;13.396;2023-03-15T13:49:24;98237.97;;;7.08;100.00
13422;BME280;6782;55.904;13.396;2023-03-15T13:52:15;98253.06;;;7.20;100.00
13422;BME280;6782;55.904;13.396;2023-03-15T13:55:04;98306.88;;;7.27;100.00
13422;BME280;6782;55.904;13.396;2023-03-15T13:57:55;98068.56;;;7.24;100.00
13422;BME280;6782;55.904;13.396;2023-03-15T14:00:46;97970.03;;;7.20;100.00
13422;BME280;6782;55.904;13.396;2023-03-15T14:03:34;97799.41;;;6.94;100.00